createdAt,value
2018-07-13T00:01:59.095Z,6.33
2018-07-13T00:04:27.891Z,10.30
2018-07-13T00:06:56.454Z,8.20
2018-07-13T00:09:25.091Z,6.63
2018-07-13T00:11:53.620Z,7.00
2018-07-13T00:14:26.087Z,7.80
2018-07-13T00:16:56.156Z,7.50
2018-07-13T00:19:25.272Z,8.13
2018-07-13T00:21:54.178Z,6.93
2018-07-13T00:24:22.979Z,9.27
2018-07-13T00:26:51.718Z,9.67
2018-07-13T00:29:20.133Z,7.03
2018-07-13T00:31:48.658Z,6.20
2018-07-13T00:34:17.434Z,8.50
2018-07-13T00:36:45.911Z,8.13
2018-07-13T00:39:14.730Z,7.53
2018-07-13T00:41:43.253Z,7.03
2018-07-13T00:44:11.963Z,6.23
2018-07-13T00:46:40.448Z,5.43
2018-07-13T00:49:08.988Z,8.37
2018-07-13T00:51:37.712Z,7.57
2018-07-13T00:54:06.614Z,7.73
2018-07-13T00:56:35.120Z,6.57
2018-07-13T00:59:03.794Z,7.03
2018-07-13T01:01:32.231Z,6.17
2018-07-13T01:04:00.880Z,8.43
2018-07-13T01:06:29.643Z,7.93
2018-07-13T01:08:58.325Z,9.23
2018-07-13T01:11:26.816Z,6.50
2018-07-13T01:13:55.490Z,7.57
2018-07-13T01:16:23.995Z,10.07
2018-07-13T01:18:52.768Z,10.17
2018-07-13T01:21:21.252Z,9.30
2018-07-13T01:23:49.785Z,6.87
2018-07-13T01:26:18.362Z,5.77
2018-07-13T01:28:46.875Z,7.67
2018-07-13T01:31:15.613Z,8.83
2018-07-13T01:33:44.151Z,9.20
2018-07-13T01:36:12.613Z,10.17
2018-07-13T01:38:41.108Z,5.87
2018-07-13T01:41:09.765Z,8.03
2018-07-13T01:43:38.294Z,9.07
2018-07-13T01:46:06.827Z,6.40
2018-07-13T01:48:35.519Z,7.83
2018-07-13T01:51:04.025Z,6.33
2018-07-13T01:53:32.534Z,6.37
2018-07-13T01:56:01.071Z,10.07
2018-07-13T01:58:30.129Z,7.33
2018-07-13T02:00:58.606Z,8.23
2018-07-13T02:03:27.076Z,7.87
2018-07-13T02:05:55.571Z,6.53
2018-07-13T02:08:24.056Z,6.97
2018-07-13T02:10:52.970Z,6.93
2018-07-13T02:13:21.550Z,6.17
2018-07-13T02:15:50.073Z,6.83
2018-07-13T02:18:18.550Z,6.63
2018-07-13T02:20:47.241Z,6.13
2018-07-13T02:23:15.717Z,6.53
2018-07-13T02:25:44.212Z,8.83
2018-07-13T02:28:12.921Z,8.83
2018-07-13T02:30:41.083Z,9.30
2018-07-13T02:33:09.796Z,9.70
2018-07-13T02:35:38.451Z,6.30
2018-07-13T02:38:07.155Z,10.97
2018-07-13T02:40:35.627Z,7.50
2018-07-13T02:43:04.340Z,11.27
2018-07-13T02:45:32.828Z,10.37
2018-07-13T02:48:01.797Z,8.60
2018-07-13T02:50:30.325Z,7.37
2018-07-13T02:52:58.798Z,8.77
2018-07-13T02:55:27.301Z,7.17
2018-07-13T02:57:55.786Z,6.63
2018-07-13T03:00:24.286Z,11.10
2018-07-13T03:02:52.796Z,10.53
2018-07-13T03:05:21.436Z,7.27
2018-07-13T03:07:50.296Z,8.53
2018-07-13T03:10:18.846Z,7.63
2018-07-13T03:12:47.315Z,6.57
2018-07-13T03:15:15.958Z,9.87
2018-07-13T03:17:44.786Z,8.93
2018-07-13T03:20:13.588Z,6.80
2018-07-13T03:22:42.107Z,10.83
2018-07-13T03:25:10.593Z,7.87
2018-07-13T03:27:39.103Z,13.47
2018-07-13T03:30:07.776Z,12.03
2018-07-13T03:32:36.292Z,9.97
2018-07-13T03:35:04.931Z,7.40
2018-07-13T03:37:33.608Z,10.60
2018-07-13T03:40:02.099Z,9.93
2018-07-13T03:42:30.811Z,13.27
2018-07-13T03:44:59.342Z,13.67
2018-07-13T03:47:27.811Z,10.53
2018-07-13T03:49:56.353Z,16.17
2018-07-13T03:52:24.871Z,12.87
2018-07-13T03:54:53.622Z,14.30
2018-07-13T03:57:22.176Z,18.87
2018-07-13T03:59:50.748Z,14.73
2018-07-13T04:02:19.584Z,22.83
2018-07-13T04:04:48.072Z,13.97
2018-07-13T04:07:16.803Z,16.93
2018-07-13T04:09:45.310Z,14.57
2018-07-13T04:12:13.956Z,18.13
2018-07-13T04:14:42.467Z,17.07
2018-07-13T04:17:11.163Z,13.20
2018-07-13T04:19:39.857Z,13.20
2018-07-13T04:22:08.747Z,16.50
2018-07-13T04:24:38.055Z,11.00
2018-07-13T04:27:06.640Z,13.67
2018-07-13T04:29:34.842Z,16.40
2018-07-13T04:32:03.340Z,13.23
2018-07-13T04:34:32.007Z,12.47
2018-07-13T04:37:00.696Z,13.10
2018-07-13T04:39:29.477Z,13.40
2018-07-13T04:41:58.161Z,12.23
2018-07-13T04:44:26.864Z,14.80
2018-07-13T04:46:55.430Z,14.43
2018-07-13T04:49:23.929Z,13.13
2018-07-13T04:51:52.539Z,14.47
2018-07-13T04:54:21.081Z,11.77
2018-07-13T04:56:49.891Z,12.10
2018-07-13T04:59:18.863Z,10.47
2018-07-13T05:01:47.547Z,12.37
2018-07-13T05:04:16.117Z,12.27
2018-07-13T05:06:44.984Z,8.43
2018-07-13T05:09:13.583Z,10.03
2018-07-13T05:11:42.159Z,7.97
2018-07-13T05:14:10.680Z,12.97
2018-07-13T05:16:39.212Z,10.20
2018-07-13T05:19:07.755Z,12.80
2018-07-13T05:21:36.362Z,12.53
2018-07-13T05:24:05.027Z,12.93
2018-07-13T05:26:33.836Z,12.20
2018-07-13T05:29:02.384Z,13.10
2018-07-13T05:31:30.890Z,17.47
2018-07-13T05:33:59.618Z,21.23
2018-07-13T05:36:28.135Z,17.13
2018-07-13T05:38:56.648Z,20.83
2018-07-13T05:41:25.518Z,20.97
2018-07-13T05:43:54.072Z,20.30
2018-07-13T05:46:22.799Z,18.87
2018-07-13T05:48:51.388Z,20.90
2018-07-13T05:51:19.880Z,22.03
2018-07-13T05:53:48.562Z,25.03
2018-07-13T05:56:17.442Z,28.03
2018-07-13T05:58:45.958Z,44.97
2018-07-13T06:01:14.131Z,26.23
2018-07-13T06:03:42.662Z,26.50
2018-07-13T06:06:11.237Z,25.43
2018-07-13T06:08:39.974Z,23.43
2018-07-13T06:11:08.835Z,22.40
2018-07-13T06:13:37.588Z,22.30
2018-07-13T06:16:06.087Z,25.07
2018-07-13T06:18:35.015Z,22.00
2018-07-13T06:21:03.544Z,25.67
2018-07-13T06:23:32.041Z,24.50
2018-07-13T06:26:00.569Z,27.10
2018-07-13T06:28:29.877Z,23.73
2018-07-13T06:30:58.434Z,22.87
2018-07-13T06:33:27.337Z,22.17
2018-07-13T06:35:56.112Z,25.57
2018-07-13T06:38:24.897Z,27.33
2018-07-13T06:40:53.443Z,25.50
2018-07-13T06:43:22.196Z,26.50
2018-07-13T06:45:50.851Z,28.30
2018-07-13T06:48:19.371Z,29.17
2018-07-13T06:50:48.204Z,35.60
2018-07-13T06:53:17.156Z,30.63
2018-07-13T06:55:46.324Z,36.00
2018-07-13T06:58:26.124Z,29.50
2018-07-13T07:01:01.280Z,31.07
2018-07-13T07:03:31.606Z,29.97
2018-07-13T07:06:08.828Z,34.07
2018-07-13T07:08:38.869Z,33.97
2018-07-13T07:11:07.617Z,37.73
2018-07-13T07:13:40.177Z,41.77
2018-07-13T07:16:09.092Z,48.90
2018-07-13T07:18:38.020Z,43.20
2018-07-13T07:21:10.185Z,45.73
2018-07-13T07:23:39.018Z,41.03
2018-07-13T07:26:07.720Z,49.10
2018-07-13T07:28:36.323Z,27.13
2018-07-13T07:31:05.033Z,19.27
2018-07-13T07:33:33.587Z,16.73
2018-07-13T07:36:02.211Z,18.00
2018-07-13T07:38:31.080Z,21.10
2018-07-13T07:40:59.763Z,16.00
2018-07-13T07:43:28.314Z,13.57
2018-07-13T07:45:56.971Z,19.20
2018-07-13T07:48:25.920Z,13.17
2018-07-13T07:50:54.298Z,13.57
2018-07-13T07:53:23.495Z,15.83
2018-07-13T07:55:52.280Z,12.77
2018-07-13T07:58:21.047Z,11.60
2018-07-13T08:00:49.739Z,12.80
2018-07-13T08:03:18.377Z,12.23
2018-07-13T08:05:47.131Z,12.93
2018-07-13T08:08:16.077Z,9.23
2018-07-13T08:10:44.953Z,9.33
2018-07-13T08:13:13.692Z,9.17
2018-07-13T08:15:41.963Z,9.60
2018-07-13T08:18:10.699Z,8.83
2018-07-13T08:20:46.260Z,9.27
2018-07-13T08:23:14.884Z,9.97
2018-07-13T08:25:46.254Z,9.43
2018-07-13T08:28:17.823Z,14.30
2018-07-13T08:30:49.530Z,8.27
2018-07-13T08:33:18.470Z,7.70
2018-07-13T08:35:47.170Z,6.90
2018-07-13T08:38:15.709Z,9.00
2018-07-13T08:40:44.276Z,5.70
2018-07-13T08:43:12.871Z,5.53
2018-07-13T08:45:41.994Z,4.07
2018-07-13T08:48:10.650Z,5.13
2018-07-13T08:50:39.548Z,7.77
2018-07-13T08:53:08.755Z,6.57
2018-07-13T08:55:37.507Z,6.63
2018-07-13T08:58:06.562Z,5.57
2018-07-13T09:00:35.656Z,7.00
2018-07-13T09:03:04.602Z,9.00
2018-07-13T09:05:33.151Z,7.97
2018-07-13T09:08:01.825Z,6.00
2018-07-13T09:10:30.525Z,5.87
2018-07-13T09:12:59.576Z,6.20
2018-07-13T09:15:28.202Z,5.93
2018-07-13T09:17:56.937Z,3.80
2018-07-13T09:20:25.685Z,6.70
2018-07-13T09:22:54.741Z,5.13
2018-07-13T09:25:23.567Z,7.97
2018-07-13T09:27:52.251Z,5.30
2018-07-13T09:30:20.847Z,6.37
2018-07-13T09:32:49.511Z,4.30
2018-07-13T09:35:18.337Z,4.33
2018-07-13T09:37:47.147Z,4.87
2018-07-13T09:40:15.922Z,5.60
2018-07-13T09:42:44.787Z,5.30
2018-07-13T09:45:13.588Z,3.53
2018-07-13T09:47:42.308Z,5.87
2018-07-13T09:50:11.260Z,3.37
2018-07-13T09:52:40.008Z,4.10
2018-07-13T09:55:08.660Z,4.47
2018-07-13T09:57:37.309Z,3.77
2018-07-13T10:00:05.988Z,4.47
2018-07-13T10:02:34.540Z,4.28
2018-07-13T10:05:03.497Z,3.58
2018-07-13T10:07:32.202Z,4.65
2018-07-13T10:10:00.731Z,2.17
2018-07-13T10:12:29.429Z,4.42
2018-07-13T10:14:57.679Z,1.70
2018-07-13T10:17:26.422Z,2.00
2018-07-13T10:19:55.093Z,4.42
2018-07-13T10:22:26.425Z,3.37
2018-07-13T10:24:57.093Z,2.12
2018-07-13T10:27:29.736Z,2.65
2018-07-13T10:29:59.219Z,2.37
2018-07-13T10:32:27.966Z,2.02
2018-07-13T10:34:57.002Z,5.25
2018-07-13T10:37:27.883Z,2.27
2018-07-13T10:39:56.684Z,2.10
2018-07-13T10:42:25.632Z,1.75
2018-07-13T10:44:54.187Z,2.33
2018-07-13T10:47:22.995Z,2.90
2018-07-13T10:49:51.819Z,2.12
2018-07-13T10:52:20.529Z,4.50
2018-07-13T10:54:49.144Z,3.33
2018-07-13T10:57:17.963Z,2.10
2018-07-13T10:59:46.563Z,2.37
2018-07-13T11:02:15.395Z,2.58
2018-07-13T11:04:44.020Z,4.12
2018-07-13T11:07:12.335Z,2.10
2018-07-13T11:09:40.852Z,2.70
2018-07-13T11:12:09.706Z,2.95
2018-07-13T11:14:38.338Z,2.75
2018-07-13T11:17:06.917Z,3.10
2018-07-13T11:19:35.554Z,2.87
2018-07-13T11:22:04.240Z,4.45
2018-07-13T11:24:32.898Z,3.52
2018-07-13T11:27:01.635Z,4.90
2018-07-13T11:29:30.337Z,2.10
2018-07-13T11:31:58.942Z,2.83
2018-07-13T11:34:27.504Z,2.45
2018-07-13T11:36:56.459Z,2.02
2018-07-13T11:39:25.481Z,3.92
2018-07-13T11:41:54.366Z,4.60
2018-07-13T11:44:23.136Z,2.92
2018-07-13T11:46:52.002Z,2.25
2018-07-13T11:49:20.752Z,2.42
2018-07-13T11:51:49.175Z,5.78
2018-07-13T11:54:17.975Z,2.85
2018-07-13T11:56:46.779Z,4.30
2018-07-13T11:59:15.501Z,2.83
2018-07-13T12:01:44.137Z,3.55
2018-07-13T12:04:13.127Z,3.50
2018-07-13T12:06:42.007Z,3.77
2018-07-13T12:09:11.113Z,5.28
2018-07-13T12:11:39.873Z,2.77
2018-07-13T12:14:08.812Z,5.03
2018-07-13T12:16:37.538Z,3.08
2018-07-13T12:19:06.488Z,3.30
2018-07-13T12:21:35.211Z,2.55
2018-07-13T12:24:04.200Z,2.47
2018-07-13T12:26:32.985Z,2.62
2018-07-13T12:29:01.921Z,2.35
2018-07-13T12:31:30.778Z,4.15
2018-07-13T12:33:59.691Z,2.37
2018-07-13T12:36:28.463Z,2.87
2018-07-13T12:38:57.454Z,3.30
2018-07-13T12:41:26.116Z,2.15
2018-07-13T12:43:54.713Z,2.92
2018-07-13T12:46:23.333Z,3.67
2018-07-13T12:48:52.055Z,4.17
2018-07-13T12:51:20.733Z,2.45
2018-07-13T12:53:49.523Z,4.80
2018-07-13T12:56:18.370Z,4.20
2018-07-13T12:58:46.970Z,6.85
2018-07-13T13:01:15.945Z,4.25
2018-07-13T13:03:44.510Z,3.58
2018-07-13T13:06:13.040Z,5.53
2018-07-13T13:08:42.066Z,6.25
2018-07-13T13:11:10.730Z,3.20
2018-07-13T13:13:39.457Z,4.70
2018-07-13T13:16:08.008Z,3.25
2018-07-13T13:18:36.797Z,3.35
2018-07-13T13:21:05.796Z,3.22
2018-07-13T13:23:34.533Z,4.12
2018-07-13T13:26:03.377Z,3.00
2018-07-13T13:28:32.068Z,3.75
2018-07-13T13:31:00.997Z,2.90
2018-07-13T13:33:29.972Z,2.65
2018-07-13T13:35:58.887Z,5.83
2018-07-13T13:38:27.683Z,2.55
2018-07-13T13:40:56.280Z,2.25
2018-07-13T13:43:24.970Z,2.17
2018-07-13T13:45:54.107Z,2.33
2018-07-13T13:48:22.800Z,8.43
2018-07-13T13:50:51.541Z,3.80
2018-07-13T13:53:20.333Z,3.77
2018-07-13T13:55:49.079Z,3.27
2018-07-13T13:58:18.083Z,1.92
2018-07-13T14:00:47.031Z,3.05
2018-07-13T14:03:15.985Z,2.65
2018-07-13T14:05:45.567Z,2.67
2018-07-13T14:08:14.438Z,2.60
2018-07-13T14:10:43.392Z,4.47
2018-07-13T14:13:12.051Z,2.83
2018-07-13T14:15:40.787Z,2.30
2018-07-13T14:18:09.760Z,6.05
2018-07-13T14:20:38.750Z,4.10
2018-07-13T14:23:07.705Z,5.60
2018-07-13T14:25:36.541Z,5.72
2018-07-13T14:28:05.197Z,3.15
2018-07-13T14:30:33.867Z,4.15
2018-07-13T14:33:02.806Z,2.75
2018-07-13T14:35:31.390Z,2.60
2018-07-13T14:37:59.946Z,2.47
2018-07-13T14:40:28.513Z,2.42
2018-07-13T14:42:57.439Z,3.62
2018-07-13T14:45:26.200Z,4.65
2018-07-13T14:47:54.852Z,2.12
2018-07-13T14:50:23.592Z,3.85
2018-07-13T14:52:52.367Z,3.62
2018-07-13T14:55:21.432Z,2.87
2018-07-13T14:57:50.946Z,3.30
2018-07-13T15:00:19.823Z,3.15
2018-07-13T15:02:48.719Z,2.47
2018-07-13T15:05:17.749Z,2.20
2018-07-13T15:07:46.512Z,2.80
2018-07-13T15:10:15.548Z,5.75
2018-07-13T15:12:44.239Z,2.65
2018-07-13T15:15:13.185Z,3.45
2018-07-13T15:17:42.244Z,3.60
2018-07-13T15:20:11.038Z,3.80
2018-07-13T15:22:39.726Z,4.47
2018-07-13T15:25:08.267Z,3.20
2018-07-13T15:27:37.010Z,4.62
2018-07-13T15:30:05.735Z,3.55
2018-07-13T15:32:35.099Z,3.15
2018-07-13T15:35:03.841Z,4.08
2018-07-13T15:37:32.472Z,3.20
2018-07-13T15:40:01.006Z,3.45
2018-07-13T15:42:29.746Z,2.25
2018-07-13T15:44:58.364Z,6.53
2018-07-13T15:47:26.946Z,3.90
2018-07-13T15:49:56.023Z,3.83
2018-07-13T15:52:24.744Z,3.70
2018-07-13T15:54:54.087Z,3.67
2018-07-13T15:57:22.818Z,3.90
2018-07-13T15:59:51.750Z,3.77
2018-07-13T16:02:20.723Z,8.75
2018-07-13T16:04:49.778Z,2.02
2018-07-13T16:07:18.944Z,3.35
2018-07-13T16:09:47.527Z,2.75
2018-07-13T16:12:16.130Z,2.58
2018-07-13T16:14:44.965Z,4.78
2018-07-13T16:17:13.553Z,4.67
2018-07-13T16:19:42.405Z,4.83
2018-07-13T16:22:11.567Z,5.35
2018-07-13T16:24:40.221Z,5.55
2018-07-13T16:27:08.977Z,4.42
2018-07-13T16:29:37.880Z,4.65
2018-07-13T16:32:06.863Z,3.22
2018-07-13T16:34:35.669Z,5.33
2018-07-13T16:37:04.804Z,5.95
2018-07-13T16:39:33.372Z,4.37
2018-07-13T16:42:01.991Z,3.47
2018-07-13T16:44:31.089Z,4.53
2018-07-13T16:46:59.900Z,4.35
2018-07-13T16:49:28.644Z,6.97
2018-07-13T16:51:57.302Z,4.00
2018-07-13T16:54:25.707Z,4.53
2018-07-13T16:56:54.320Z,9.55
2018-07-13T16:59:23.542Z,6.80
2018-07-13T17:01:52.356Z,5.15
2018-07-13T17:04:21.302Z,3.40
2018-07-13T17:06:50.429Z,5.75
2018-07-13T17:09:19.307Z,6.03
2018-07-13T17:11:48.163Z,4.12
2018-07-13T17:14:16.764Z,5.47
2018-07-13T17:16:45.350Z,3.35
2018-07-13T17:19:14.218Z,5.47
2018-07-13T17:21:43.200Z,6.00
2018-07-13T17:24:11.951Z,5.85
2018-07-13T17:26:40.663Z,5.58
2018-07-13T17:29:09.919Z,6.25
2018-07-13T17:31:38.825Z,3.85
2018-07-13T17:34:08.008Z,6.22
2018-07-13T17:36:36.754Z,3.17
2018-07-13T17:39:06.071Z,4.35
2018-07-13T17:41:35.117Z,6.95
2018-07-13T17:44:04.130Z,4.97
2018-07-13T17:46:32.797Z,4.60
2018-07-13T17:49:01.829Z,4.83
2018-07-13T17:51:30.560Z,4.25
2018-07-13T17:53:59.412Z,5.80
2018-07-13T17:56:28.148Z,6.53
2018-07-13T17:58:56.988Z,6.55
2018-07-13T18:01:25.962Z,4.42
2018-07-13T18:03:55.054Z,7.17
2018-07-13T18:06:23.881Z,5.92
2018-07-13T18:08:52.681Z,3.05
2018-07-13T18:11:21.645Z,3.65
2018-07-13T18:13:50.410Z,6.33
2018-07-13T18:16:19.408Z,3.95
2018-07-13T18:18:48.210Z,4.33
2018-07-13T18:21:17.017Z,7.97
2018-07-13T18:23:45.655Z,4.87
2018-07-13T18:26:14.645Z,6.78
2018-07-13T18:28:43.309Z,5.62
2018-07-13T18:31:12.152Z,5.62
2018-07-13T18:33:41.303Z,4.60
2018-07-13T18:36:09.925Z,3.77
2018-07-13T18:38:38.600Z,5.07
2018-07-13T18:41:11.551Z,6.00
2018-07-13T18:43:40.278Z,5.20
2018-07-13T18:46:08.913Z,6.47
2018-07-13T18:48:37.485Z,5.10
2018-07-13T18:51:06.686Z,6.10
2018-07-13T18:53:35.936Z,6.27
2018-07-13T18:56:05.155Z,5.60
2018-07-13T18:58:33.914Z,5.70
2018-07-13T19:01:02.791Z,7.03
2018-07-13T19:03:31.427Z,3.97
2018-07-13T19:06:00.251Z,7.30
2018-07-13T19:08:28.976Z,6.07
2018-07-13T19:10:57.991Z,5.77
2018-07-13T19:13:26.814Z,4.63
2018-07-13T19:15:55.540Z,7.73
2018-07-13T19:18:24.501Z,6.57
2018-07-13T19:20:53.163Z,3.53
2018-07-13T19:23:21.957Z,4.27
2018-07-13T19:25:50.731Z,5.43
2018-07-13T19:28:19.514Z,4.70
2018-07-13T19:30:48.689Z,5.20
2018-07-13T19:33:17.449Z,6.23
2018-07-13T19:35:46.654Z,6.87
2018-07-13T19:38:15.268Z,5.70
2018-07-13T19:40:44.276Z,5.13
2018-07-13T19:43:13.028Z,7.50
2018-07-13T19:45:42.099Z,9.13
2018-07-13T19:48:11.135Z,8.97
2018-07-13T19:50:40.019Z,6.53
2018-07-13T19:53:09.324Z,4.97
2018-07-13T19:55:38.472Z,5.37
2018-07-13T19:58:07.170Z,7.53
2018-07-13T20:00:36.370Z,6.47
2018-07-13T20:03:05.074Z,6.50
2018-07-13T20:05:33.749Z,5.87
2018-07-13T20:08:02.714Z,7.37
2018-07-13T20:10:31.303Z,6.43
2018-07-13T20:13:00.338Z,6.77
2018-07-13T20:15:29.183Z,5.20
2018-07-13T20:17:58.436Z,7.67
2018-07-13T20:20:27.442Z,6.90
2018-07-13T20:22:56.106Z,6.57
2018-07-13T20:25:24.995Z,6.63
2018-07-13T20:27:53.809Z,6.03
2018-07-13T20:30:22.728Z,5.37
2018-07-13T20:32:51.178Z,7.00
2018-07-13T20:35:20.284Z,6.07
2018-07-13T20:37:49.097Z,6.27
2018-07-13T20:40:18.019Z,11.97
2018-07-13T20:42:46.801Z,8.40
2018-07-13T20:45:15.527Z,8.90
2018-07-13T20:47:44.596Z,7.10
2018-07-13T20:50:13.471Z,10.07
2018-07-13T20:52:42.165Z,6.43
2018-07-13T20:55:10.993Z,5.57
2018-07-13T20:57:39.991Z,6.23
2018-07-13T21:00:09.440Z,8.80
2018-07-13T21:02:38.529Z,7.43
2018-07-13T21:05:07.289Z,6.97
2018-07-13T21:07:35.927Z,8.13
2018-07-13T21:10:04.903Z,7.13
2018-07-13T21:12:33.668Z,7.07
2018-07-13T21:15:02.321Z,10.13
2018-07-13T21:17:31.211Z,5.83
2018-07-13T21:20:00.110Z,13.73
2018-07-13T21:22:28.907Z,8.27
2018-07-13T21:24:57.564Z,7.07
2018-07-13T21:27:26.259Z,6.40
2018-07-13T21:29:54.990Z,7.37
2018-07-13T21:32:23.865Z,9.20
2018-07-13T21:34:52.397Z,5.90
2018-07-13T21:37:21.594Z,8.33
2018-07-13T21:39:50.369Z,6.23
2018-07-13T21:42:19.553Z,7.40
2018-07-13T21:44:48.257Z,9.73
2018-07-13T21:47:16.922Z,9.00
2018-07-13T21:49:45.725Z,11.70
2018-07-13T21:52:14.760Z,7.03
2018-07-13T21:54:43.254Z,7.27
2018-07-13T21:57:12.185Z,10.80
2018-07-13T21:59:41.142Z,7.50
2018-07-13T22:02:09.693Z,6.97
2018-07-13T22:04:38.638Z,8.87
2018-07-13T22:07:07.418Z,9.73
2018-07-13T22:09:35.982Z,10.27
2018-07-13T22:12:04.658Z,12.03
2018-07-13T22:14:33.233Z,10.83
2018-07-13T22:17:02.433Z,10.97
2018-07-13T22:19:31.535Z,14.03
2018-07-13T22:22:00.150Z,9.87
2018-07-13T22:24:29.065Z,7.13
2018-07-13T22:26:57.733Z,10.87
2018-07-13T22:29:26.566Z,8.27
2018-07-13T22:31:55.336Z,11.93
2018-07-13T22:34:24.784Z,7.77
2018-07-13T22:36:53.208Z,9.47
2018-07-13T22:39:21.916Z,7.23
2018-07-13T22:41:50.573Z,7.73
2018-07-13T22:44:19.150Z,9.97
2018-07-13T22:46:48.052Z,7.60
2018-07-13T22:49:16.632Z,8.17
2018-07-13T22:51:45.714Z,7.87
2018-07-13T22:54:14.433Z,7.27
2018-07-13T22:56:43.166Z,7.87
2018-07-13T22:59:11.747Z,8.27
2018-07-13T23:01:40.421Z,8.17
2018-07-13T23:04:09.109Z,10.03
2018-07-13T23:06:37.647Z,8.73
2018-07-13T23:09:06.845Z,10.63
2018-07-13T23:11:35.372Z,7.07
2018-07-13T23:14:04.176Z,10.00
2018-07-13T23:16:32.872Z,8.87
2018-07-13T23:19:01.508Z,9.70
2018-07-13T23:21:30.244Z,9.20
2018-07-13T23:23:58.996Z,6.87
2018-07-13T23:26:27.511Z,7.70
2018-07-13T23:28:56.185Z,7.87
2018-07-13T23:31:25.016Z,7.93
2018-07-13T23:33:53.734Z,8.67
2018-07-13T23:36:22.191Z,7.07
2018-07-13T23:38:50.808Z,9.17
2018-07-13T23:41:19.608Z,7.20
2018-07-13T23:43:48.113Z,12.57
2018-07-13T23:46:16.675Z,8.20
2018-07-13T23:48:45.372Z,8.07
2018-07-13T23:51:13.875Z,7.87
2018-07-13T23:53:42.654Z,10.20
2018-07-13T23:56:11.374Z,7.90
2018-07-13T23:58:40.356Z,11.50
